createdAt,value
2023-03-11T00:00:25.505Z,13.77
2023-03-11T00:02:54.761Z,14.23
2023-03-11T00:05:27.913Z,11.50
2023-03-11T00:07:55.594Z,16.15
2023-03-11T00:10:31.574Z,9.85
2023-03-11T00:12:59.520Z,12.27
2023-03-11T00:15:27.941Z,13.73
2023-03-11T00:17:54.988Z,16.40
2023-03-11T00:20:23.600Z,15.90
2023-03-11T00:22:51.299Z,14.85
2023-03-11T00:25:19.706Z,14.27
2023-03-11T00:27:46.368Z,16.70
2023-03-11T00:30:15.385Z,13.90
2023-03-11T00:32:42.206Z,13.82
2023-03-11T00:35:12.489Z,13.23
2023-03-11T00:37:39.091Z,12.55
2023-03-11T00:40:11.026Z,11.90
2023-03-11T00:42:37.709Z,11.35
2023-03-11T00:45:04.743Z,15.73
2023-03-11T00:47:31.310Z,15.48
2023-03-11T00:49:57.893Z,14.35
2023-03-11T00:52:24.615Z,13.88
2023-03-11T00:54:51.319Z,14.48
2023-03-11T00:57:17.938Z,16.70
2023-03-11T00:59:44.556Z,15.10
2023-03-11T01:02:11.238Z,11.57
2023-03-11T01:04:38.096Z,15.05
2023-03-11T01:07:04.838Z,14.38
2023-03-11T01:09:31.555Z,10.48
2023-03-11T01:11:58.199Z,11.70
2023-03-11T01:14:24.827Z,14.98
2023-03-11T01:16:51.681Z,13.75
2023-03-11T01:19:18.356Z,14.52
2023-03-11T01:21:45.201Z,11.57
2023-03-11T01:24:11.899Z,14.48
2023-03-11T01:26:38.619Z,9.75
2023-03-11T01:29:05.220Z,11.25
2023-03-11T01:31:31.851Z,10.95
2023-03-11T01:33:58.505Z,11.43
2023-03-11T01:36:25.290Z,12.27
2023-03-11T01:38:51.948Z,9.88
2023-03-11T01:41:18.507Z,11.95
2023-03-11T01:43:45.052Z,14.52
2023-03-11T01:46:15.004Z,14.30
2023-03-11T01:48:46.815Z,8.75
2023-03-11T01:51:14.250Z,9.90
2023-03-11T01:53:41.174Z,13.82
2023-03-11T01:56:08.139Z,8.75
2023-03-11T01:58:39.535Z,11.65
2023-03-11T02:01:07.201Z,10.52
2023-03-11T02:03:38.637Z,12.05
2023-03-11T02:06:09.277Z,9.02
2023-03-11T02:08:35.959Z,11.60
2023-03-11T02:11:05.371Z,11.30
2023-03-11T02:13:35.435Z,11.60
2023-03-11T02:16:03.904Z,10.65
2023-03-11T02:18:31.350Z,9.98
2023-03-11T02:21:25.015Z,11.50
2023-03-11T02:23:56.262Z,14.27
2023-03-11T02:26:26.137Z,10.73
2023-03-11T02:28:53.808Z,12.65
2023-03-11T02:31:21.979Z,16.45
2023-03-11T02:33:53.113Z,7.50
2023-03-11T02:36:40.939Z,10.85
2023-03-11T02:39:09.082Z,7.65
2023-03-11T02:41:39.320Z,6.85
2023-03-11T02:44:10.360Z,8.95
2023-03-11T02:46:41.430Z,8.25
2023-03-11T02:49:09.697Z,8.95
2023-03-11T02:51:36.309Z,11.52
2023-03-11T02:54:05.184Z,10.30
2023-03-11T02:56:32.226Z,10.85
2023-03-11T02:58:59.013Z,8.95
2023-03-11T03:01:26.013Z,9.90
2023-03-11T03:03:52.724Z,11.63
2023-03-11T03:06:19.533Z,9.98
2023-03-11T03:08:46.187Z,10.20
2023-03-11T03:11:12.970Z,8.43
2023-03-11T03:13:39.799Z,7.95
2023-03-11T03:16:06.698Z,6.10
2023-03-11T03:18:33.625Z,11.15
2023-03-11T03:21:00.342Z,10.80
2023-03-11T03:23:26.936Z,8.15
2023-03-11T03:25:53.504Z,11.00
2023-03-11T03:28:20.170Z,6.60
2023-03-11T03:30:46.961Z,11.57
2023-03-11T03:33:13.651Z,8.70
2023-03-11T03:35:42.573Z,6.93
2023-03-11T03:38:09.391Z,10.52
2023-03-11T03:40:36.591Z,11.23
2023-03-11T03:43:03.995Z,9.75
2023-03-11T03:45:30.785Z,11.93
2023-03-11T03:47:57.420Z,16.67
2023-03-11T03:50:24.468Z,11.00
2023-03-11T03:52:51.268Z,12.93
2023-03-11T03:55:17.881Z,6.85
2023-03-11T03:57:44.570Z,7.03
2023-03-11T04:00:11.765Z,9.23
2023-03-11T04:02:38.467Z,8.95
2023-03-11T04:05:05.682Z,7.13
2023-03-11T04:07:35.208Z,12.07
2023-03-11T04:10:02.443Z,8.70
2023-03-11T04:12:29.240Z,10.18
2023-03-11T04:14:56.003Z,10.35
2023-03-11T04:17:22.765Z,10.95
2023-03-11T04:19:49.590Z,8.48
2023-03-11T04:22:16.216Z,9.23
2023-03-11T04:24:42.812Z,9.40
2023-03-11T04:27:09.809Z,4.10
2023-03-11T04:29:36.798Z,9.02
2023-03-11T04:32:03.530Z,11.13
2023-03-11T04:34:30.125Z,7.65
2023-03-11T04:36:56.819Z,9.68
2023-03-11T04:39:23.515Z,6.13
2023-03-11T04:41:50.179Z,6.15
2023-03-11T04:44:16.973Z,8.05
2023-03-11T04:46:43.532Z,6.90
2023-03-11T04:49:10.593Z,5.50
2023-03-11T04:51:37.381Z,10.18
2023-03-11T04:54:04.382Z,8.43
2023-03-11T04:56:31.047Z,6.10
2023-03-11T04:58:57.882Z,11.02
2023-03-11T05:01:24.594Z,6.18
2023-03-11T05:03:51.300Z,7.03
2023-03-11T05:06:18.043Z,7.80
2023-03-11T05:08:44.795Z,9.18
2023-03-11T05:11:11.560Z,10.23
2023-03-11T05:13:38.268Z,8.80
2023-03-11T05:16:05.289Z,7.45
2023-03-11T05:18:32.654Z,10.32
2023-03-11T05:20:59.497Z,11.35
2023-03-11T05:23:26.066Z,12.80
2023-03-11T05:25:52.830Z,14.90
2023-03-11T05:28:19.642Z,10.90
2023-03-11T05:30:46.277Z,14.63
2023-03-11T05:33:13.421Z,12.75
2023-03-11T05:35:40.187Z,11.35
2023-03-11T05:38:07.741Z,10.73
2023-03-11T05:40:34.386Z,9.68
2023-03-11T05:43:01.016Z,14.40
2023-03-11T05:45:27.786Z,11.48
2023-03-11T05:47:54.489Z,9.27
2023-03-11T05:50:21.111Z,10.45
2023-03-11T05:52:47.762Z,8.82
2023-03-11T05:55:14.746Z,7.78
2023-03-11T05:57:41.408Z,9.80
2023-03-11T06:00:12.305Z,9.48
2023-03-11T06:02:40.580Z,11.68
2023-03-11T06:05:08.677Z,9.02
2023-03-11T06:07:36.087Z,9.77
2023-03-11T06:10:04.482Z,10.80
2023-03-11T06:12:33.409Z,11.10
2023-03-11T06:14:59.965Z,8.55
2023-03-11T06:17:28.729Z,9.70
2023-03-11T06:19:57.036Z,9.80
2023-03-11T06:22:23.665Z,5.65
2023-03-11T06:24:50.558Z,8.45
2023-03-11T06:27:17.204Z,13.80
2023-03-11T06:29:43.899Z,9.20
2023-03-11T06:32:10.955Z,9.02
2023-03-11T06:34:37.711Z,7.28
2023-03-11T06:37:04.450Z,8.15
2023-03-11T06:39:31.134Z,8.70
2023-03-11T06:41:57.789Z,10.43
2023-03-11T06:44:24.417Z,9.52
2023-03-11T06:46:51.004Z,9.38
2023-03-11T06:49:17.811Z,11.13
2023-03-11T06:51:44.369Z,10.77
2023-03-11T06:54:11.402Z,10.88
2023-03-11T06:56:38.115Z,11.30
2023-03-11T06:59:04.691Z,9.00
2023-03-11T07:01:31.387Z,9.48
2023-03-11T07:03:58.403Z,9.98
2023-03-11T07:06:27.268Z,12.80
2023-03-11T07:08:54.109Z,10.25
2023-03-11T07:11:25.596Z,8.10
2023-03-11T07:13:53.707Z,9.13
2023-03-11T07:16:26.231Z,9.90
2023-03-11T07:18:55.181Z,13.13
2023-03-11T07:21:23.255Z,9.68
2023-03-11T07:23:57.663Z,9.52
2023-03-11T07:26:25.559Z,10.68
2023-03-11T07:28:53.723Z,13.50
2023-03-11T07:31:23.982Z,9.05
2023-03-11T07:33:51.209Z,12.63
2023-03-11T07:36:23.597Z,16.25
2023-03-11T07:38:55.637Z,17.00
2023-03-11T07:41:22.250Z,15.68
2023-03-11T07:43:48.841Z,15.20
2023-03-11T07:46:18.580Z,16.35
2023-03-11T07:48:45.908Z,15.75
2023-03-11T07:51:21.192Z,10.70
2023-03-11T07:53:48.677Z,13.52
2023-03-11T07:56:19.313Z,12.10
2023-03-11T07:58:46.314Z,9.20
2023-03-11T08:01:22.179Z,7.57
2023-03-11T08:03:51.230Z,13.63
2023-03-11T08:06:23.494Z,8.68
2023-03-11T08:08:51.500Z,14.20
2023-03-11T08:11:19.463Z,11.52
2023-03-11T08:13:47.109Z,9.75
2023-03-11T08:16:15.856Z,7.97
2023-03-11T08:18:44.472Z,11.93
2023-03-11T08:21:16.991Z,11.02
2023-03-11T08:23:46.244Z,9.50
2023-03-11T08:26:15.687Z,11.20
2023-03-11T08:28:43.066Z,7.68
2023-03-11T08:31:14.893Z,8.18
2023-03-11T08:33:46.123Z,10.55
2023-03-11T08:36:13.248Z,10.65
2023-03-11T08:38:40.101Z,9.50
2023-03-11T08:41:06.715Z,14.77
2023-03-11T08:43:33.645Z,11.20
2023-03-11T08:46:02.320Z,11.80
2023-03-11T08:48:30.066Z,8.50
2023-03-11T08:50:56.712Z,12.13
2023-03-11T08:53:23.667Z,15.13
2023-03-11T08:55:51.732Z,12.10
2023-03-11T08:58:19.322Z,15.30
2023-03-11T09:00:46.311Z,9.98
2023-03-11T09:03:13.551Z,11.95
2023-03-11T09:05:40.833Z,11.50
2023-03-11T09:08:07.584Z,10.77
2023-03-11T09:10:34.214Z,12.77
2023-03-11T09:13:00.769Z,10.50
2023-03-11T09:15:27.655Z,10.90
2023-03-11T09:17:54.435Z,17.05
2023-03-11T09:20:21.509Z,9.93
2023-03-11T09:22:48.650Z,11.07
2023-03-11T09:25:15.444Z,8.30
2023-03-11T09:27:42.137Z,11.85
2023-03-11T09:30:10.681Z,11.88
2023-03-11T09:32:37.461Z,11.90
2023-03-11T09:35:04.890Z,11.68
2023-03-11T09:37:31.736Z,8.57
2023-03-11T09:39:58.423Z,12.48
2023-03-11T09:42:33.837Z,14.88
2023-03-11T09:45:25.666Z,10.68
2023-03-11T09:48:31.525Z,14.75
2023-03-11T09:51:27.543Z,11.25
2023-03-11T09:54:03.450Z,10.75
2023-03-11T09:56:35.362Z,12.50
2023-03-11T09:59:09.645Z,9.98
2023-03-11T10:01:44.830Z,12.57
2023-03-11T10:04:16.925Z,10.32
2023-03-11T10:06:46.727Z,8.77
2023-03-11T10:09:52.186Z,11.88
2023-03-11T10:12:57.668Z,10.30
2023-03-11T10:15:52.636Z,11.90
2023-03-11T10:18:40.792Z,12.98
2023-03-11T10:21:19.181Z,13.85
2023-03-11T10:23:52.037Z,14.75
2023-03-11T10:26:28.196Z,14.27
2023-03-11T10:29:14.908Z,14.57
2023-03-11T10:31:55.114Z,12.18
2023-03-11T10:34:33.955Z,11.30
2023-03-11T10:37:22.557Z,12.02
2023-03-11T10:39:49.450Z,12.50
2023-03-11T10:42:22.497Z,13.82
2023-03-11T10:44:51.106Z,9.93
2023-03-11T10:47:25.395Z,14.43
2023-03-11T10:49:52.826Z,13.25
2023-03-11T10:52:20.313Z,11.35
2023-03-11T10:54:58.642Z,15.57
2023-03-11T10:57:44.609Z,15.68
2023-03-11T11:00:28.104Z,15.52
2023-03-11T11:02:59.927Z,10.80
2023-03-11T11:05:36.820Z,14.73
2023-03-11T11:08:14.485Z,11.73
2023-03-11T11:10:53.256Z,13.85
2023-03-11T11:13:22.402Z,13.65
2023-03-11T11:15:56.334Z,12.43
2023-03-11T11:18:54.421Z,14.60
2023-03-11T11:21:43.656Z,11.48
2023-03-11T11:24:29.410Z,10.02
2023-03-11T11:27:15.430Z,15.60
2023-03-11T11:29:42.755Z,11.90
2023-03-11T11:32:15.376Z,9.82
2023-03-11T11:34:42.569Z,9.98
2023-03-11T11:37:14.589Z,11.68
2023-03-11T11:39:52.803Z,11.90
2023-03-11T11:42:20.594Z,11.52
2023-03-11T11:44:51.909Z,11.70
2023-03-11T11:47:35.470Z,12.95
2023-03-11T11:50:06.319Z,10.77
2023-03-11T11:52:47.664Z,9.70
2023-03-11T11:55:22.686Z,13.13
2023-03-11T11:57:51.473Z,10.25
2023-03-11T12:00:20.768Z,11.10
2023-03-11T12:03:13.589Z,12.20
2023-03-11T12:06:02.706Z,10.65
2023-03-11T12:08:32.144Z,7.28
2023-03-11T12:11:05.873Z,9.05
2023-03-11T12:13:50.882Z,11.20
2023-03-11T12:16:27.741Z,10.40
2023-03-11T12:19:17.465Z,11.38
2023-03-11T12:22:16.528Z,10.27
2023-03-11T12:24:59.722Z,15.25
2023-03-11T12:27:35.067Z,11.45
2023-03-11T12:30:11.562Z,6.20
2023-03-11T12:32:43.100Z,12.13
2023-03-11T12:35:31.973Z,11.50
2023-03-11T12:38:01.832Z,14.40
2023-03-11T12:40:47.793Z,11.00
2023-03-11T12:43:35.693Z,6.00
2023-03-11T12:46:07.548Z,8.82
2023-03-11T12:48:40.363Z,10.32
2023-03-11T12:51:07.054Z,10.07
2023-03-11T12:53:47.262Z,11.32
2023-03-11T12:56:29.202Z,13.38
2023-03-11T12:59:34.652Z,8.52
2023-03-11T13:02:36.968Z,9.18
2023-03-11T13:05:07.844Z,10.50
2023-03-11T13:07:48.952Z,9.80
2023-03-11T13:10:15.803Z,8.70
2023-03-11T13:12:52.921Z,10.50
2023-03-11T13:15:22.497Z,8.07
2023-03-11T13:18:02.489Z,11.77
2023-03-11T13:20:44.487Z,9.18
2023-03-11T13:23:14.292Z,13.82
2023-03-11T13:26:11.153Z,7.50
2023-03-11T13:28:56.279Z,15.75
2023-03-11T13:31:35.124Z,9.25
2023-03-11T13:34:17.362Z,6.40
2023-03-11T13:37:11.940Z,10.80
2023-03-11T13:40:01.683Z,11.57
2023-03-11T13:42:35.536Z,13.23
2023-03-11T13:45:05.001Z,12.10
2023-03-11T13:47:33.734Z,11.07
2023-03-11T13:50:02.504Z,10.23
2023-03-11T13:52:38.074Z,9.50
2023-03-11T13:55:19.027Z,7.13
2023-03-11T13:57:56.496Z,8.15
2023-03-11T14:00:29.309Z,6.70
2023-03-11T14:03:01.723Z,6.63
2023-03-11T14:05:37.275Z,13.65
2023-03-11T14:08:21.172Z,8.88
2023-03-11T14:10:59.139Z,8.00
2023-03-11T14:13:31.244Z,10.75
2023-03-11T14:16:04.126Z,8.77
2023-03-11T14:18:36.235Z,9.10
2023-03-11T14:21:04.990Z,14.18
2023-03-11T14:23:43.154Z,5.22
2023-03-11T14:26:15.869Z,11.18
2023-03-11T14:28:46.779Z,7.97
2023-03-11T14:31:31.256Z,9.82
2023-03-11T14:34:27.825Z,10.93
2023-03-11T14:36:59.824Z,12.88
2023-03-11T14:39:32.208Z,10.55
2023-03-11T14:42:08.582Z,11.98
2023-03-11T14:44:40.712Z,7.60
2023-03-11T14:47:31.815Z,8.65
2023-03-11T14:49:59.333Z,8.88
2023-03-11T14:52:42.410Z,15.15
2023-03-11T14:55:33.699Z,9.23
2023-03-11T14:58:15.899Z,9.10
2023-03-11T15:00:51.930Z,10.27
2023-03-11T15:03:31.188Z,8.05
2023-03-11T15:06:12.074Z,12.73
2023-03-11T15:08:44.216Z,8.93
2023-03-11T15:11:10.826Z,9.15
2023-03-11T15:13:39.794Z,13.07
2023-03-11T15:16:20.930Z,9.90
2023-03-11T15:18:47.997Z,14.35
2023-03-11T15:21:17.855Z,10.55
2023-03-11T15:23:50.489Z,6.75
2023-03-11T15:26:22.750Z,8.38
2023-03-11T15:29:23.215Z,7.63
2023-03-11T15:31:50.127Z,13.07
2023-03-11T15:34:16.719Z,10.90
2023-03-11T15:36:49.510Z,7.97
2023-03-11T15:39:22.394Z,11.18
2023-03-11T15:42:07.601Z,9.13
2023-03-11T15:44:41.025Z,10.63
2023-03-11T15:47:15.516Z,6.63
2023-03-11T15:49:42.463Z,9.02
2023-03-11T15:52:09.764Z,8.43
2023-03-11T15:54:37.094Z,8.18
2023-03-11T15:57:07.813Z,8.48
2023-03-11T15:59:36.892Z,10.23
2023-03-11T16:02:04.479Z,11.40
2023-03-11T16:04:31.397Z,8.32
2023-03-11T16:07:07.432Z,9.60
2023-03-11T16:09:35.389Z,7.63
2023-03-11T16:12:02.741Z,7.22
2023-03-11T16:14:29.324Z,8.82
2023-03-11T16:16:55.988Z,8.25
2023-03-11T16:19:22.605Z,6.32
2023-03-11T16:21:50.564Z,4.93
2023-03-11T16:24:22.424Z,7.95
2023-03-11T16:26:51.971Z,4.10
2023-03-11T16:29:20.010Z,8.05
2023-03-11T16:31:47.529Z,6.32
2023-03-11T16:34:14.124Z,8.13
2023-03-11T16:36:41.062Z,5.40
2023-03-11T16:39:07.848Z,9.35
2023-03-11T16:41:42.528Z,7.18
2023-03-11T16:44:10.002Z,8.75
2023-03-11T16:46:36.909Z,6.40
2023-03-11T16:49:03.984Z,11.02
2023-03-11T16:51:30.811Z,5.80
2023-03-11T16:53:57.712Z,5.43
2023-03-11T16:56:24.892Z,5.95
2023-03-11T16:58:51.636Z,8.20
2023-03-11T17:01:19.241Z,7.28
2023-03-11T17:03:48.662Z,6.53
2023-03-11T17:06:17.213Z,8.85
2023-03-11T17:08:49.036Z,11.23
2023-03-11T17:11:23.210Z,9.15
2023-03-11T17:13:50.727Z,4.90
2023-03-11T17:16:17.453Z,9.00
2023-03-11T17:18:44.199Z,9.13
2023-03-11T17:21:13.534Z,9.18
2023-03-11T17:23:40.597Z,9.02
2023-03-11T17:26:09.703Z,9.93
2023-03-11T17:28:37.223Z,6.57
2023-03-11T17:31:04.124Z,9.00
2023-03-11T17:33:30.880Z,5.63
2023-03-11T17:36:06.279Z,6.60
2023-03-11T17:38:33.755Z,6.07
2023-03-11T17:41:00.378Z,7.95
2023-03-11T17:43:27.014Z,8.05
2023-03-11T17:45:54.163Z,5.97
2023-03-11T17:48:21.312Z,5.63
2023-03-11T17:50:48.002Z,8.00
2023-03-11T17:53:14.777Z,7.10
2023-03-11T17:55:41.396Z,5.93
2023-03-11T17:58:08.436Z,7.65
2023-03-11T18:00:35.345Z,12.13
2023-03-11T18:03:02.036Z,5.97
2023-03-11T18:05:28.663Z,7.53
2023-03-11T18:07:55.464Z,8.18
2023-03-11T18:10:22.381Z,10.07
2023-03-11T18:12:49.809Z,9.00
2023-03-11T18:15:19.478Z,7.93
2023-03-11T18:17:47.136Z,10.13
2023-03-11T18:20:14.812Z,7.72
2023-03-11T18:22:46.738Z,7.78
2023-03-11T18:25:14.097Z,11.05
2023-03-11T18:27:40.832Z,9.98
2023-03-11T18:30:08.293Z,11.40
2023-03-11T18:32:35.031Z,10.65
2023-03-11T18:35:02.018Z,10.65
2023-03-11T18:37:28.907Z,8.55
2023-03-11T18:39:55.524Z,10.13
2023-03-11T18:42:22.241Z,10.88
2023-03-11T18:44:49.029Z,14.57
2023-03-11T18:47:15.659Z,8.63
2023-03-11T18:49:42.370Z,10.65
2023-03-11T18:52:09.602Z,9.75
2023-03-11T18:54:36.257Z,11.45
2023-03-11T18:57:03.149Z,10.95
2023-03-11T18:59:29.924Z,10.15
2023-03-11T19:01:56.572Z,13.43
2023-03-11T19:04:23.724Z,12.38
2023-03-11T19:06:50.625Z,10.38
2023-03-11T19:09:21.267Z,16.20
2023-03-11T19:14:14.823Z,18.55
2023-03-11T19:16:42.167Z,16.80
2023-03-11T19:19:11.598Z,16.73
2023-03-11T19:21:38.550Z,16.50
2023-03-11T19:24:05.433Z,17.13
2023-03-11T19:26:44.197Z,16.13
2023-03-11T19:29:13.653Z,16.45
2023-03-11T19:31:40.448Z,16.23
2023-03-11T19:34:07.302Z,15.60
2023-03-11T19:36:34.143Z,20.05
2023-03-11T19:39:00.923Z,15.02
2023-03-11T19:41:27.566Z,12.30
2023-03-11T19:43:54.477Z,15.27
2023-03-11T19:46:22.311Z,13.93
2023-03-11T19:48:49.298Z,13.90
2023-03-11T19:51:17.499Z,13.18
2023-03-11T19:53:44.626Z,12.07
2023-03-11T19:56:11.772Z,12.68
2023-03-11T19:58:38.617Z,14.85
2023-03-11T20:01:05.606Z,15.57
2023-03-11T20:03:32.506Z,13.07
2023-03-11T20:06:05.663Z,13.90
2023-03-11T20:08:36.621Z,13.07
2023-03-11T20:11:05.087Z,14.75
2023-03-11T20:13:33.431Z,14.35
2023-03-11T20:16:08.385Z,12.88
2023-03-11T20:18:35.618Z,15.40
2023-03-11T20:21:13.312Z,12.57
2023-03-11T20:23:41.159Z,15.32
2023-03-11T20:26:10.767Z,14.07
2023-03-11T20:28:37.433Z,16.23
2023-03-11T20:31:21.856Z,17.13
2023-03-11T20:33:50.316Z,18.70
2023-03-11T20:36:24.419Z,17.73
2023-03-11T20:38:53.490Z,15.80
2023-03-11T20:41:23.118Z,16.95
2023-03-11T20:43:51.969Z,17.87
2023-03-11T20:46:18.743Z,19.73
2023-03-11T20:48:45.769Z,20.33
2023-03-11T20:51:15.805Z,18.27
2023-03-11T20:53:42.838Z,18.02
2023-03-11T20:56:13.260Z,17.83
2023-03-11T21:01:20.445Z,17.02
2023-03-11T21:06:37.736Z,16.50
2023-03-11T21:09:08.157Z,18.55
2023-03-11T21:14:02.418Z,16.45
2023-03-11T21:16:29.243Z,19.63
2023-03-11T21:18:56.108Z,18.23
2023-03-11T21:21:23.349Z,19.15
2023-03-11T21:23:50.354Z,19.92
2023-03-11T21:26:17.879Z,18.05
2023-03-11T21:28:46.807Z,19.80
2023-03-11T21:31:21.971Z,19.75
2023-03-11T21:33:51.976Z,18.35
2023-03-11T21:36:19.172Z,16.58
2023-03-11T21:38:47.874Z,19.10
2023-03-11T21:41:20.724Z,17.85
2023-03-11T21:43:48.372Z,17.17
2023-03-11T21:46:17.881Z,15.68
2023-03-11T21:48:45.838Z,13.63
2023-03-11T21:51:13.868Z,16.25
2023-03-11T21:53:40.613Z,14.77
2023-03-11T21:56:07.856Z,15.20
2023-03-11T21:58:35.004Z,15.20
2023-03-11T22:01:02.526Z,14.75
2023-03-11T22:03:30.768Z,20.27
2023-03-11T22:05:59.200Z,17.02
2023-03-11T22:08:26.662Z,16.58
2023-03-11T22:10:53.865Z,16.25
2023-03-11T22:13:21.455Z,16.60
2023-03-11T22:15:48.338Z,16.27
2023-03-11T22:18:15.101Z,16.15
2023-03-11T22:20:42.919Z,16.40
2023-03-11T22:23:10.055Z,15.60
2023-03-11T22:25:37.006Z,15.32
2023-03-11T22:28:04.430Z,14.90
2023-03-11T22:30:31.184Z,15.60
2023-03-11T22:32:57.877Z,15.82
2023-03-11T22:35:24.900Z,16.45
2023-03-11T22:37:51.597Z,14.45
2023-03-11T22:40:18.345Z,16.88
2023-03-11T22:42:45.275Z,15.55
2023-03-11T22:45:12.075Z,16.10
2023-03-11T22:47:38.711Z,14.05
2023-03-11T22:50:05.746Z,16.40
2023-03-11T22:52:32.334Z,15.63
2023-03-11T22:54:59.099Z,16.08
2023-03-11T22:57:25.857Z,16.23
2023-03-11T22:59:52.631Z,16.95
2023-03-11T23:02:19.332Z,18.88
2023-03-11T23:04:46.456Z,16.25
2023-03-11T23:07:13.166Z,17.63
2023-03-11T23:09:39.917Z,15.30
2023-03-11T23:12:07.093Z,15.68
2023-03-11T23:14:44.442Z,13.45
2023-03-11T23:17:12.698Z,15.80
2023-03-11T23:19:39.532Z,15.73
2023-03-11T23:22:07.089Z,14.50
2023-03-11T23:24:34.436Z,21.38
2023-03-11T23:27:04.648Z,16.63
2023-03-11T23:29:32.170Z,14.82
2023-03-11T23:31:58.945Z,15.88
2023-03-11T23:34:25.598Z,16.98
2023-03-11T23:36:52.180Z,15.73
2023-03-11T23:39:19.008Z,16.33
2023-03-11T23:41:45.689Z,16.48
2023-03-11T23:44:12.315Z,16.90
2023-03-11T23:46:39.201Z,17.42
2023-03-11T23:49:05.849Z,18.13
2023-03-11T23:51:32.478Z,16.55
2023-03-11T23:53:59.197Z,13.85
2023-03-11T23:56:25.830Z,15.60
2023-03-11T23:58:52.416Z,15.95
